sensor_id;sensor_type;location;lat;lon;timestamp;temperature;humidity
13035;DHT22;6584;48.022;11.810;2022-11-24T00:01:53;5.70;99.90
13035;DHT22;6584;48.022;11.810;2022-11-24T00:04:19;5.70;99.90
13035;DHT22;6584;48.022;11.810;2022-11-24T00:06:45;5.70;99.90
13035;DHT22;6584;48.022;11.810;2022-11-24T00:09:10;5.70;99.90
13035;DHT22;6584;48.022;11.810;2022-11-24T00:11:36;5.70;99.90
13035;DHT22;6584;48.022;11.810;2022-11-24T00:14:03;5.70;99.90
13035;DHT22;6584;48.022;11.810;2022-11-24T00:16:33;5.80;99.90
13035;DHT22;6584;48.022;11.810;2022-11-24T00:19:01;5.80;99.90
13035;DHT22;6584;48.022;11.810;2022-11-24T00:21:29;5.80;99.90
13035;DHT22;6584;48.022;11.810;2022-11-24T00:23:55;5.70;99.90
13035;DHT22;6584;48.022;11.810;2022-11-24T00:26:28;5.70;99.90
13035;DHT22;6584;48.022;11.810;2022-11-24T00:28:56;5.70;99.90
13035;DHT22;6584;48.022;11.810;2022-11-24T00:31:30;5.90;99.90
13035;DHT22;6584;48.022;11.810;2022-11-24T00:33:58;5.80;99.90
13035;DHT22;6584;48.022;11.810;2022-11-24T00:36:26;5.80;99.90
13035;DHT22;6584;48.022;11.810;2022-11-24T00:38:53;5.80;99.90
13035;DHT22;6584;48.022;11.810;2022-11-24T00:41:19;5.80;99.90
13035;DHT22;6584;48.022;11.810;2022-11-24T00:43:45;5.80;99.90
13035;DHT22;6584;48.022;11.810;2022-11-24T00:46:11;5.80;99.90
13035;DHT22;6584;48.022;11.810;2022-11-24T00:48:36;5.90;99.90
13035;DHT22;6584;48.022;11.810;2022-11-24T00:51:05;5.90;99.90
13035;DHT22;6584;48.022;11.810;2022-11-24T00:53:31;5.80;99.90
13035;DHT22;6584;48.022;11.810;2022-11-24T00:55:56;5.80;99.90
13035;DHT22;6584;48.022;11.810;2022-11-24T00:58:23;5.80;99.90
13035;DHT22;6584;48.022;11.810;2022-11-24T01:00:49;5.80;99.90
13035;DHT22;6584;48.022;11.810;2022-11-24T01:03:15;5.80;99.90
13035;DHT22;6584;48.022;11.810;2022-11-24T01:05:41;5.80;99.90
13035;DHT22;6584;48.022;11.810;2022-11-24T01:08:07;5.70;99.90
13035;DHT22;6584;48.022;11.810;2022-11-24T01:10:32;5.60;99.90
13035;DHT22;6584;48.022;11.810;2022-11-24T01:12:59;5.60;99.90
13035;DHT22;6584;48.022;11.810;2022-11-24T01:15:25;5.60;99.90
13035;DHT22;6584;48.022;11.810;2022-11-24T01:17:52;5.70;99.90
13035;DHT22;6584;48.022;11.810;2022-11-24T01:20:17;5.70;99.90
13035;DHT22;6584;48.022;11.810;2022-11-24T01:22:43;5.60;99.90
13035;DHT22;6584;48.022;11.810;2022-11-24T01:25:11;5.70;99.90
13035;DHT22;6584;48.022;11.810;2022-11-24T01:27:37;5.70;99.90
13035;DHT22;6584;48.022;11.810;2022-11-24T01:30:04;5.70;99.90
13035;DHT22;6584;48.022;11.810;2022-11-24T01:32:31;5.70;99.90
13035;DHT22;6584;48.022;11.810;2022-11-24T01:35:03;5.70;99.90
13035;DHT22;6584;48.022;11.810;2022-11-24T01:37:29;5.60;99.90
13035;DHT22;6584;48.022;11.810;2022-11-24T01:39:55;5.60;99.90
13035;DHT22;6584;48.022;11.810;2022-11-24T01:42:21;5.60;99.90
13035;DHT22;6584;48.022;11.810;2022-11-24T01:44:49;5.60;99.90
13035;DHT22;6584;48.022;11.810;2022-11-24T01:47:34;5.60;99.90
13035;DHT22;6584;48.022;11.810;2022-11-24T01:50:02;5.60;99.90
13035;DHT22;6584;48.022;11.810;2022-11-24T01:52:33;5.50;99.90
13035;DHT22;6584;48.022;11.810;2022-11-24T01:55:06;5.40;99.90
13035;DHT22;6584;48.022;11.810;2022-11-24T01:57:37;5.50;99.90
13035;DHT22;6584;48.022;11.810;2022-11-24T02:00:07;5.60;99.90
13035;DHT22;6584;48.022;11.810;2022-11-24T02:02:34;5.60;99.90
13035;DHT22;6584;48.022;11.810;2022-11-24T02:05:06;5.60;99.90
13035;DHT22;6584;48.022;11.810;2022-11-24T02:07:34;5.60;99.90
13035;DHT22;6584;48.022;11.810;2022-11-24T02:10:09;5.60;99.90
13035;DHT22;6584;48.022;11.810;2022-11-24T02:12:37;5.60;99.90
13035;DHT22;6584;48.022;11.810;2022-11-24T02:15:04;5.60;99.90
13035;DHT22;6584;48.022;11.810;2022-11-24T02:17:29;5.60;99.90
13035;DHT22;6584;48.022;11.810;2022-11-24T02:19:57;5.60;99.90
13035;DHT22;6584;48.022;11.810;2022-11-24T02:28:00;5.60;99.90
13035;DHT22;6584;48.022;11.810;2022-11-24T02:30:26;5.60;99.90
13035;DHT22;6584;48.022;11.810;2022-11-24T02:32:52;5.60;99.90
13035;DHT22;6584;48.022;11.810;2022-11-24T02:35:18;5.60;99.90
13035;DHT22;6584;48.022;11.810;2022-11-24T02:37:44;5.60;99.90
13035;DHT22;6584;48.022;11.810;2022-11-24T02:40:10;5.60;99.90
13035;DHT22;6584;48.022;11.810;2022-11-24T02:42:40;5.70;99.90
13035;DHT22;6584;48.022;11.810;2022-11-24T02:45:08;5.70;99.90
13035;DHT22;6584;48.022;11.810;2022-11-24T02:47:34;5.70;99.90
13035;DHT22;6584;48.022;11.810;2022-11-24T02:50:00;5.70;99.90
13035;DHT22;6584;48.022;11.810;2022-11-24T02:52:25;5.80;99.90
13035;DHT22;6584;48.022;11.810;2022-11-24T02:54:51;5.80;99.90
13035;DHT22;6584;48.022;11.810;2022-11-24T02:57:16;5.80;99.90
13035;DHT22;6584;48.022;11.810;2022-11-24T02:59:42;5.70;99.90
13035;DHT22;6584;48.022;11.810;2022-11-24T03:02:08;5.70;99.90
13035;DHT22;6584;48.022;11.810;2022-11-24T03:04:34;5.70;99.90
13035;DHT22;6584;48.022;11.810;2022-11-24T03:07:00;5.70;99.90
13035;DHT22;6584;48.022;11.810;2022-11-24T03:09:26;5.70;99.90
13035;DHT22;6584;48.022;11.810;2022-11-24T03:11:51;5.70;99.90
13035;DHT22;6584;48.022;11.810;2022-11-24T03:14:17;5.70;99.90
13035;DHT22;6584;48.022;11.810;2022-11-24T03:16:42;5.70;99.90
13035;DHT22;6584;48.022;11.810;2022-11-24T03:19:08;5.70;99.90
13035;DHT22;6584;48.022;11.810;2022-11-24T03:21:35;5.70;99.90
13035;DHT22;6584;48.022;11.810;2022-11-24T03:24:01;5.70;99.90
13035;DHT22;6584;48.022;11.810;2022-11-24T03:26:26;5.70;99.90
13035;DHT22;6584;48.022;11.810;2022-11-24T03:28:56;5.70;99.90
13035;DHT22;6584;48.022;11.810;2022-11-24T03:31:22;5.70;99.90
13035;DHT22;6584;48.022;11.810;2022-11-24T03:33:48;5.70;99.90
13035;DHT22;6584;48.022;11.810;2022-11-24T03:36:13;5.80;99.90
13035;DHT22;6584;48.022;11.810;2022-11-24T03:38:39;5.80;99.90
13035;DHT22;6584;48.022;11.810;2022-11-24T03:41:04;5.80;99.90
13035;DHT22;6584;48.022;11.810;2022-11-24T03:43:30;5.80;99.90
13035;DHT22;6584;48.022;11.810;2022-11-24T03:45:56;5.80;99.90
13035;DHT22;6584;48.022;11.810;2022-11-24T03:48:21;5.70;99.90
13035;DHT22;6584;48.022;11.810;2022-11-24T03:50:55;5.80;99.90
13035;DHT22;6584;48.022;11.810;2022-11-24T03:53:21;5.80;99.90
13035;DHT22;6584;48.022;11.810;2022-11-24T03:55:47;5.80;99.90
13035;DHT22;6584;48.022;11.810;2022-11-24T03:58:13;5.80;99.90
13035;DHT22;6584;48.022;11.810;2022-11-24T04:00:39;5.80;99.90
13035;DHT22;6584;48.022;11.810;2022-11-24T04:03:04;5.80;99.90
13035;DHT22;6584;48.022;11.810;2022-11-24T04:05:30;5.80;99.90
13035;DHT22;6584;48.022;11.810;2022-11-24T04:07:56;5.70;99.90
13035;DHT22;6584;48.022;11.810;2022-11-24T04:10:23;5.70;99.90
13035;DHT22;6584;48.022;11.810;2022-11-24T04:12:49;5.70;99.90
13035;DHT22;6584;48.022;11.810;2022-11-24T04:15:17;5.70;99.90
13035;DHT22;6584;48.022;11.810;2022-11-24T04:17:44;5.70;99.90
13035;DHT22;6584;48.022;11.810;2022-11-24T04:20:11;5.70;99.90
13035;DHT22;6584;48.022;11.810;2022-11-24T04:22:38;5.70;99.90
13035;DHT22;6584;48.022;11.810;2022-11-24T04:25:04;5.70;99.90
13035;DHT22;6584;48.022;11.810;2022-11-24T04:27:32;5.70;99.90
13035;DHT22;6584;48.022;11.810;2022-11-24T04:29:57;5.70;99.90
13035;DHT22;6584;48.022;11.810;2022-11-24T04:32:23;5.60;99.90
13035;DHT22;6584;48.022;11.810;2022-11-24T04:34:49;5.60;99.90
13035;DHT22;6584;48.022;11.810;2022-11-24T04:37:14;5.60;99.90
13035;DHT22;6584;48.022;11.810;2022-11-24T04:39:40;5.60;99.90
13035;DHT22;6584;48.022;11.810;2022-11-24T04:42:05;5.60;99.90
13035;DHT22;6584;48.022;11.810;2022-11-24T04:44:31;5.60;99.90
13035;DHT22;6584;48.022;11.810;2022-11-24T04:46:57;5.50;99.90
13035;DHT22;6584;48.022;11.810;2022-11-24T04:49:22;5.50;99.90
13035;DHT22;6584;48.022;11.810;2022-11-24T04:51:48;5.50;99.90
13035;DHT22;6584;48.022;11.810;2022-11-24T04:54:14;5.50;99.90
13035;DHT22;6584;48.022;11.810;2022-11-24T04:56:40;5.50;99.90
13035;DHT22;6584;48.022;11.810;2022-11-24T04:59:06;5.60;99.90
13035;DHT22;6584;48.022;11.810;2022-11-24T05:01:32;5.70;99.90
13035;DHT22;6584;48.022;11.810;2022-11-24T05:03:58;5.70;99.90
13035;DHT22;6584;48.022;11.810;2022-11-24T05:06:24;5.60;99.90
13035;DHT22;6584;48.022;11.810;2022-11-24T05:08:51;5.60;99.90
13035;DHT22;6584;48.022;11.810;2022-11-24T05:11:17;5.60;99.90
13035;DHT22;6584;48.022;11.810;2022-11-24T05:13:43;5.60;99.90
13035;DHT22;6584;48.022;11.810;2022-11-24T05:16:09;5.60;99.90
13035;DHT22;6584;48.022;11.810;2022-11-24T05:18:35;5.60;99.90
13035;DHT22;6584;48.022;11.810;2022-11-24T05:21:02;5.60;99.90
13035;DHT22;6584;48.022;11.810;2022-11-24T05:23:27;5.60;99.90
13035;DHT22;6584;48.022;11.810;2022-11-24T05:25:53;5.60;99.90
13035;DHT22;6584;48.022;11.810;2022-11-24T05:28:19;5.60;99.90
13035;DHT22;6584;48.022;11.810;2022-11-24T05:30:44;5.60;99.90
13035;DHT22;6584;48.022;11.810;2022-11-24T05:33:15;5.60;99.90
13035;DHT22;6584;48.022;11.810;2022-11-24T05:35:46;5.70;99.90
13035;DHT22;6584;48.022;11.810;2022-11-24T05:38:17;5.60;99.90
13035;DHT22;6584;48.022;11.810;2022-11-24T05:40:43;5.60;99.90
13035;DHT22;6584;48.022;11.810;2022-11-24T05:43:12;5.70;99.90
13035;DHT22;6584;48.022;11.810;2022-11-24T05:45:38;5.70;99.90
13035;DHT22;6584;48.022;11.810;2022-11-24T05:48:11;5.60;99.90
13035;DHT22;6584;48.022;11.810;2022-11-24T05:50:38;5.60;99.90
13035;DHT22;6584;48.022;11.810;2022-11-24T05:53:06;5.70;99.90
13035;DHT22;6584;48.022;11.810;2022-11-24T05:55:32;5.80;99.90
13035;DHT22;6584;48.022;11.810;2022-11-24T05:57:59;5.80;99.90
13035;DHT22;6584;48.022;11.810;2022-11-24T06:00:25;5.80;99.90
13035;DHT22;6584;48.022;11.810;2022-11-24T06:02:50;5.80;99.90
13035;DHT22;6584;48.022;11.810;2022-11-24T06:05:16;5.80;99.90
13035;DHT22;6584;48.022;11.810;2022-11-24T06:07:42;5.80;99.90
13035;DHT22;6584;48.022;11.810;2022-11-24T06:10:08;5.80;99.90
13035;DHT22;6584;48.022;11.810;2022-11-24T06:12:34;5.80;99.90
13035;DHT22;6584;48.022;11.810;2022-11-24T06:15:00;5.80;99.90
13035;DHT22;6584;48.022;11.810;2022-11-24T06:17:27;5.80;99.90
13035;DHT22;6584;48.022;11.810;2022-11-24T06:19:53;5.90;99.90
13035;DHT22;6584;48.022;11.810;2022-11-24T06:22:18;5.90;99.90
13035;DHT22;6584;48.022;11.810;2022-11-24T06:24:45;5.90;99.90
13035;DHT22;6584;48.022;11.810;2022-11-24T06:27:11;5.90;99.90
13035;DHT22;6584;48.022;11.810;2022-11-24T06:29:37;5.80;99.90
13035;DHT22;6584;48.022;11.810;2022-11-24T06:32:04;5.90;99.90
13035;DHT22;6584;48.022;11.810;2022-11-24T06:34:29;5.90;99.90
13035;DHT22;6584;48.022;11.810;2022-11-24T06:36:55;6.00;99.90
13035;DHT22;6584;48.022;11.810;2022-11-24T06:39:21;6.00;99.90
13035;DHT22;6584;48.022;11.810;2022-11-24T06:41:49;5.90;99.90
13035;DHT22;6584;48.022;11.810;2022-11-24T06:44:14;5.90;99.90
13035;DHT22;6584;48.022;11.810;2022-11-24T06:46:40;6.00;99.90
13035;DHT22;6584;48.022;11.810;2022-11-24T06:49:05;6.00;99.90
13035;DHT22;6584;48.022;11.810;2022-11-24T06:51:31;5.90;99.90
13035;DHT22;6584;48.022;11.810;2022-11-24T06:53:59;5.90;99.90
13035;DHT22;6584;48.022;11.810;2022-11-24T06:56:26;6.00;99.90
13035;DHT22;6584;48.022;11.810;2022-11-24T06:58:52;6.00;99.90
13035;DHT22;6584;48.022;11.810;2022-11-24T07:01:25;6.00;99.90
13035;DHT22;6584;48.022;11.810;2022-11-24T07:03:54;6.10;99.90
13035;DHT22;6584;48.022;11.810;2022-11-24T07:06:21;6.10;99.90
13035;DHT22;6584;48.022;11.810;2022-11-24T07:08:47;6.10;99.90
13035;DHT22;6584;48.022;11.810;2022-11-24T07:11:18;6.00;99.90
13035;DHT22;6584;48.022;11.810;2022-11-24T07:13:45;6.10;99.90
13035;DHT22;6584;48.022;11.810;2022-11-24T07:16:16;6.00;99.90
13035;DHT22;6584;48.022;11.810;2022-11-24T07:18:43;6.10;99.90
13035;DHT22;6584;48.022;11.810;2022-11-24T07:21:09;6.10;99.90
13035;DHT22;6584;48.022;11.810;2022-11-24T07:23:35;6.10;99.90
13035;DHT22;6584;48.022;11.810;2022-11-24T07:26:07;6.10;99.90
13035;DHT22;6584;48.022;11.810;2022-11-24T07:28:34;6.20;99.90
13035;DHT22;6584;48.022;11.810;2022-11-24T07:31:08;6.20;99.90
13035;DHT22;6584;48.022;11.810;2022-11-24T07:33:34;6.30;99.90
13035;DHT22;6584;48.022;11.810;2022-11-24T07:36:00;6.20;99.90
13035;DHT22;6584;48.022;11.810;2022-11-24T07:38:28;6.20;99.90
13035;DHT22;6584;48.022;11.810;2022-11-24T07:40:53;6.30;99.90
13035;DHT22;6584;48.022;11.810;2022-11-24T07:43:22;6.40;99.90
13035;DHT22;6584;48.022;11.810;2022-11-24T07:45:51;6.40;99.90
13035;DHT22;6584;48.022;11.810;2022-11-24T07:48:17;6.40;99.90
13035;DHT22;6584;48.022;11.810;2022-11-24T07:50:42;6.30;99.90
13035;DHT22;6584;48.022;11.810;2022-11-24T07:53:08;6.30;99.90
13035;DHT22;6584;48.022;11.810;2022-11-24T07:55:34;6.40;99.90
13035;DHT22;6584;48.022;11.810;2022-11-24T07:58:00;6.40;99.90
13035;DHT22;6584;48.022;11.810;2022-11-24T08:00:26;6.40;99.90
13035;DHT22;6584;48.022;11.810;2022-11-24T08:02:52;6.40;99.90
13035;DHT22;6584;48.022;11.810;2022-11-24T08:05:17;6.40;99.90
13035;DHT22;6584;48.022;11.810;2022-11-24T08:07:43;6.40;99.90
13035;DHT22;6584;48.022;11.810;2022-11-24T08:10:09;6.50;99.90
13035;DHT22;6584;48.022;11.810;2022-11-24T08:12:34;6.60;99.90
13035;DHT22;6584;48.022;11.810;2022-11-24T08:15:00;6.60;99.90
13035;DHT22;6584;48.022;11.810;2022-11-24T08:17:27;6.60;99.90
13035;DHT22;6584;48.022;11.810;2022-11-24T08:19:53;6.60;99.90
13035;DHT22;6584;48.022;11.810;2022-11-24T08:22:18;6.70;99.90
13035;DHT22;6584;48.022;11.810;2022-11-24T08:24:44;6.70;99.90
13035;DHT22;6584;48.022;11.810;2022-11-24T08:27:14;6.70;99.90
13035;DHT22;6584;48.022;11.810;2022-11-24T08:29:39;6.70;99.90
13035;DHT22;6584;48.022;11.810;2022-11-24T08:32:05;6.70;99.90
13035;DHT22;6584;48.022;11.810;2022-11-24T08:34:31;6.80;99.90
13035;DHT22;6584;48.022;11.810;2022-11-24T08:36:56;6.90;99.90
13035;DHT22;6584;48.022;11.810;2022-11-24T08:39:22;6.90;99.90
13035;DHT22;6584;48.022;11.810;2022-11-24T08:41:47;7.00;99.90
13035;DHT22;6584;48.022;11.810;2022-11-24T08:44:13;7.00;99.90
13035;DHT22;6584;48.022;11.810;2022-11-24T08:46:43;7.10;99.90
13035;DHT22;6584;48.022;11.810;2022-11-24T08:49:09;7.10;99.90
13035;DHT22;6584;48.022;11.810;2022-11-24T08:51:35;7.20;99.90
13035;DHT22;6584;48.022;11.810;2022-11-24T08:54:01;7.20;99.90
13035;DHT22;6584;48.022;11.810;2022-11-24T08:56:29;7.20;99.90
13035;DHT22;6584;48.022;11.810;2022-11-24T08:58:55;7.20;99.90
13035;DHT22;6584;48.022;11.810;2022-11-24T09:01:21;7.30;99.90
13035;DHT22;6584;48.022;11.810;2022-11-24T09:03:48;7.30;99.90
13035;DHT22;6584;48.022;11.810;2022-11-24T09:06:14;7.40;99.90
13035;DHT22;6584;48.022;11.810;2022-11-24T09:08:40;7.40;99.90
13035;DHT22;6584;48.022;11.810;2022-11-24T09:11:09;7.40;99.90
13035;DHT22;6584;48.022;11.810;2022-11-24T09:13:35;7.50;99.90
13035;DHT22;6584;48.022;11.810;2022-11-24T09:16:06;7.40;99.90
13035;DHT22;6584;48.022;11.810;2022-11-24T09:18:33;7.50;99.90
13035;DHT22;6584;48.022;11.810;2022-11-24T09:21:13;7.50;99.90
13035;DHT22;6584;48.022;11.810;2022-11-24T09:23:40;7.60;99.90
13035;DHT22;6584;48.022;11.810;2022-11-24T09:26:08;7.60;99.90
13035;DHT22;6584;48.022;11.810;2022-11-24T09:28:34;7.70;99.90
13035;DHT22;6584;48.022;11.810;2022-11-24T09:31:01;7.80;99.90
13035;DHT22;6584;48.022;11.810;2022-11-24T09:33:27;7.70;99.90
13035;DHT22;6584;48.022;11.810;2022-11-24T09:35:53;7.70;99.90
13035;DHT22;6584;48.022;11.810;2022-11-24T09:38:18;7.70;99.90
13035;DHT22;6584;48.022;11.810;2022-11-24T09:40:44;7.60;99.90
13035;DHT22;6584;48.022;11.810;2022-11-24T09:43:38;7.60;99.90
13035;DHT22;6584;48.022;11.810;2022-11-24T09:46:10;7.60;99.90
13035;DHT22;6584;48.022;11.810;2022-11-24T09:48:48;7.60;99.90
13035;DHT22;6584;48.022;11.810;2022-11-24T09:51:15;7.80;99.90
13035;DHT22;6584;48.022;11.810;2022-11-24T09:54:27;7.80;99.90
13035;DHT22;6584;48.022;11.810;2022-11-24T09:56:37;7.80;99.90
13035;DHT22;6584;48.022;11.810;2022-11-24T09:59:15;7.80;99.90
13035;DHT22;6584;48.022;11.810;2022-11-24T10:01:42;7.80;99.90
13035;DHT22;6584;48.022;11.810;2022-11-24T10:04:38;7.90;99.90
13035;DHT22;6584;48.022;11.810;2022-11-24T10:07:21;7.90;99.90
13035;DHT22;6584;48.022;11.810;2022-11-24T10:10:23;8.00;99.90
13035;DHT22;6584;48.022;11.810;2022-11-24T10:13:25;8.00;99.90
13035;DHT22;6584;48.022;11.810;2022-11-24T10:21:13;8.20;99.90
13035;DHT22;6584;48.022;11.810;2022-11-24T10:26:36;8.30;99.90
13035;DHT22;6584;48.022;11.810;2022-11-24T10:29:19;8.40;99.90
13035;DHT22;6584;48.022;11.810;2022-11-24T10:31:47;8.40;99.90
13035;DHT22;6584;48.022;11.810;2022-11-24T10:34:22;8.40;99.90
13035;DHT22;6584;48.022;11.810;2022-11-24T10:42:35;8.40;99.90
13035;DHT22;6584;48.022;11.810;2022-11-24T10:45:16;8.30;99.90
13035;DHT22;6584;48.022;11.810;2022-11-24T10:47:43;8.10;99.90
13035;DHT22;6584;48.022;11.810;2022-11-24T10:50:23;8.00;99.90
13035;DHT22;6584;48.022;11.810;2022-11-24T10:58:34;7.60;99.90
13035;DHT22;6584;48.022;11.810;2022-11-24T11:03:50;7.40;99.90
13035;DHT22;6584;48.022;11.810;2022-11-24T11:06:29;7.30;99.90
13035;DHT22;6584;48.022;11.810;2022-11-24T11:09:17;7.20;99.90
13035;DHT22;6584;48.022;11.810;2022-11-24T11:11:44;7.10;99.90
13035;DHT22;6584;48.022;11.810;2022-11-24T11:14:31;7.00;99.90
13035;DHT22;6584;48.022;11.810;2022-11-24T11:16:56;6.90;99.90
13035;DHT22;6584;48.022;11.810;2022-11-24T11:19:43;6.80;99.90
13035;DHT22;6584;48.022;11.810;2022-11-24T11:22:17;6.80;99.90
13035;DHT22;6584;48.022;11.810;2022-11-24T11:24:45;6.80;99.90
13035;DHT22;6584;48.022;11.810;2022-11-24T11:27:23;6.80;99.90
13035;DHT22;6584;48.022;11.810;2022-11-24T11:29:49;6.80;99.90
13035;DHT22;6584;48.022;11.810;2022-11-24T11:32:18;6.80;99.90
13035;DHT22;6584;48.022;11.810;2022-11-24T11:34:44;6.80;99.90
13035;DHT22;6584;48.022;11.810;2022-11-24T11:37:12;6.70;99.90
13035;DHT22;6584;48.022;11.810;2022-11-24T11:39:47;6.70;99.90
13035;DHT22;6584;48.022;11.810;2022-11-24T11:42:18;6.60;99.90
13035;DHT22;6584;48.022;11.810;2022-11-24T11:45:20;6.60;99.90
13035;DHT22;6584;48.022;11.810;2022-11-24T11:48:42;6.60;99.90
13035;DHT22;6584;48.022;11.810;2022-11-24T11:53:42;6.70;99.90
13035;DHT22;6584;48.022;11.810;2022-11-24T11:56:30;6.60;99.90
13035;DHT22;6584;48.022;11.810;2022-11-24T12:17:54;6.50;99.90
13035;DHT22;6584;48.022;11.810;2022-11-24T12:31:49;6.50;99.90
13035;DHT22;6584;48.022;11.810;2022-11-24T12:34:20;6.40;99.90
13035;DHT22;6584;48.022;11.810;2022-11-24T12:40:00;6.20;99.90
13035;DHT22;6584;48.022;11.810;2022-11-24T12:50:57;6.20;99.90
13035;DHT22;6584;48.022;11.810;2022-11-24T12:53:33;6.20;99.90
13035;DHT22;6584;48.022;11.810;2022-11-24T12:56:05;6.20;99.90
13035;DHT22;6584;48.022;11.810;2022-11-24T12:58:42;6.30;99.90
13035;DHT22;6584;48.022;11.810;2022-11-24T13:01:38;6.30;99.90
13035;DHT22;6584;48.022;11.810;2022-11-24T13:07:11;6.30;99.90
13035;DHT22;6584;48.022;11.810;2022-11-24T13:10:39;6.40;99.90
13035;DHT22;6584;48.022;11.810;2022-11-24T13:12:57;6.50;99.90
13035;DHT22;6584;48.022;11.810;2022-11-24T13:15:23;6.50;99.90
13035;DHT22;6584;48.022;11.810;2022-11-24T13:17:49;6.50;99.90
13035;DHT22;6584;48.022;11.810;2022-11-24T13:20:29;6.50;99.90
13035;DHT22;6584;48.022;11.810;2022-11-24T13:22:58;6.60;99.90
13035;DHT22;6584;48.022;11.810;2022-11-24T13:25:33;6.60;99.90
13035;DHT22;6584;48.022;11.810;2022-11-24T13:28:51;6.60;99.90
13035;DHT22;6584;48.022;11.810;2022-11-24T13:30:52;6.50;99.90
13035;DHT22;6584;48.022;11.810;2022-11-24T13:33:30;6.60;99.90
13035;DHT22;6584;48.022;11.810;2022-11-24T13:38:51;6.70;99.90
13035;DHT22;6584;48.022;11.810;2022-11-24T13:47:01;6.70;99.90
13035;DHT22;6584;48.022;11.810;2022-11-24T13:49:38;6.60;99.90
13035;DHT22;6584;48.022;11.810;2022-11-24T14:00:14;6.60;99.90
13035;DHT22;6584;48.022;11.810;2022-11-24T14:02:42;6.60;99.90
13035;DHT22;6584;48.022;11.810;2022-11-24T14:05:12;6.70;99.90
13035;DHT22;6584;48.022;11.810;2022-11-24T14:07:41;6.60;99.90
13035;DHT22;6584;48.022;11.810;2022-11-24T14:10:18;6.60;99.90
13035;DHT22;6584;48.022;11.810;2022-11-24T14:12:45;6.50;99.90
13035;DHT22;6584;48.022;11.810;2022-11-24T14:15:25;6.60;99.90
13035;DHT22;6584;48.022;11.810;2022-11-24T14:17:55;6.50;99.90
13035;DHT22;6584;48.022;11.810;2022-11-24T14:20:25;6.50;99.90
13035;DHT22;6584;48.022;11.810;2022-11-24T14:22:52;6.40;99.90
13035;DHT22;6584;48.022;11.810;2022-11-24T14:25:29;6.40;99.90
13035;DHT22;6584;48.022;11.810;2022-11-24T14:27:55;6.30;99.90
13035;DHT22;6584;48.022;11.810;2022-11-24T14:30:22;6.30;99.90
13035;DHT22;6584;48.022;11.810;2022-11-24T14:33:01;6.40;99.90
13035;DHT22;6584;48.022;11.810;2022-11-24T14:37:54;6.30;99.90
13035;DHT22;6584;48.022;11.810;2022-11-24T14:43:31;6.20;99.90
13035;DHT22;6584;48.022;11.810;2022-11-24T14:46:00;6.20;99.90
13035;DHT22;6584;48.022;11.810;2022-11-24T14:48:29;6.20;99.90
13035;DHT22;6584;48.022;11.810;2022-11-24T14:51:29;6.20;99.90
13035;DHT22;6584;48.022;11.810;2022-11-24T14:54:00;6.10;99.90
13035;DHT22;6584;48.022;11.810;2022-11-24T14:56:30;6.00;99.90
13035;DHT22;6584;48.022;11.810;2022-11-24T14:58:57;6.00;99.90
13035;DHT22;6584;48.022;11.810;2022-11-24T15:04:12;5.90;99.90
13035;DHT22;6584;48.022;11.810;2022-11-24T15:06:40;5.90;99.90
13035;DHT22;6584;48.022;11.810;2022-11-24T15:09:36;5.90;99.90
13035;DHT22;6584;48.022;11.810;2022-11-24T15:12:30;5.90;99.90
13035;DHT22;6584;48.022;11.810;2022-11-24T15:15:18;5.90;99.90
13035;DHT22;6584;48.022;11.810;2022-11-24T15:17:49;5.90;99.90
13035;DHT22;6584;48.022;11.810;2022-11-24T15:23:19;5.90;99.90
13035;DHT22;6584;48.022;11.810;2022-11-24T15:25:47;5.90;99.90
13035;DHT22;6584;48.022;11.810;2022-11-24T15:28:12;5.90;99.90
13035;DHT22;6584;48.022;11.810;2022-11-24T15:30:38;6.00;99.90
13035;DHT22;6584;48.022;11.810;2022-11-24T15:33:15;6.00;99.90
13035;DHT22;6584;48.022;11.810;2022-11-24T15:35:41;6.00;99.90
13035;DHT22;6584;48.022;11.810;2022-11-24T15:38:07;6.00;99.90
13035;DHT22;6584;48.022;11.810;2022-11-24T15:40:32;6.00;99.90
13035;DHT22;6584;48.022;11.810;2022-11-24T15:42:58;5.90;99.90
13035;DHT22;6584;48.022;11.810;2022-11-24T15:45:25;5.90;99.90
13035;DHT22;6584;48.022;11.810;2022-11-24T15:47:51;5.90;99.90
13035;DHT22;6584;48.022;11.810;2022-11-24T15:50:17;5.90;99.90
13035;DHT22;6584;48.022;11.810;2022-11-24T15:52:44;5.80;99.90
13035;DHT22;6584;48.022;11.810;2022-11-24T15:55:18;5.80;99.90
13035;DHT22;6584;48.022;11.810;2022-11-24T15:57:44;5.80;99.90
13035;DHT22;6584;48.022;11.810;2022-11-24T16:00:16;5.70;99.90
13035;DHT22;6584;48.022;11.810;2022-11-24T16:02:42;5.60;99.90
13035;DHT22;6584;48.022;11.810;2022-11-24T16:05:08;5.50;99.90
13035;DHT22;6584;48.022;11.810;2022-11-24T16:07:34;5.50;99.90
13035;DHT22;6584;48.022;11.810;2022-11-24T16:09:59;5.40;99.90
13035;DHT22;6584;48.022;11.810;2022-11-24T16:12:25;5.40;99.90
13035;DHT22;6584;48.022;11.810;2022-11-24T16:14:50;5.30;99.90
13035;DHT22;6584;48.022;11.810;2022-11-24T16:17:16;5.40;99.90
13035;DHT22;6584;48.022;11.810;2022-11-24T16:19:42;5.40;99.90
13035;DHT22;6584;48.022;11.810;2022-11-24T16:22:07;5.30;99.90
13035;DHT22;6584;48.022;11.810;2022-11-24T16:24:33;5.30;99.90
13035;DHT22;6584;48.022;11.810;2022-11-24T16:26:59;5.30;99.90
13035;DHT22;6584;48.022;11.810;2022-11-24T16:29:24;5.30;99.90
13035;DHT22;6584;48.022;11.810;2022-11-24T16:31:53;5.30;99.90
13035;DHT22;6584;48.022;11.810;2022-11-24T16:34:19;5.30;99.90
13035;DHT22;6584;48.022;11.810;2022-11-24T16:36:44;5.30;99.90
13035;DHT22;6584;48.022;11.810;2022-11-24T16:39:10;5.20;99.90
13035;DHT22;6584;48.022;11.810;2022-11-24T16:41:36;5.10;99.90
13035;DHT22;6584;48.022;11.810;2022-11-24T16:44:01;5.00;99.90
13035;DHT22;6584;48.022;11.810;2022-11-24T16:46:27;5.10;99.90
13035;DHT22;6584;48.022;11.810;2022-11-24T16:48:54;5.10;99.90
13035;DHT22;6584;48.022;11.810;2022-11-24T16:51:22;5.20;99.90
13035;DHT22;6584;48.022;11.810;2022-11-24T16:53:56;5.20;99.90
13035;DHT22;6584;48.022;11.810;2022-11-24T16:56:22;5.20;99.90
13035;DHT22;6584;48.022;11.810;2022-11-24T16:58:47;5.20;99.90
13035;DHT22;6584;48.022;11.810;2022-11-24T17:01:13;5.20;99.90
13035;DHT22;6584;48.022;11.810;2022-11-24T17:03:39;5.20;99.90
13035;DHT22;6584;48.022;11.810;2022-11-24T17:06:07;5.20;99.90
13035;DHT22;6584;48.022;11.810;2022-11-24T17:08:34;5.20;99.90
13035;DHT22;6584;48.022;11.810;2022-11-24T17:11:19;5.20;99.90
13035;DHT22;6584;48.022;11.810;2022-11-24T17:13:45;5.30;99.90
13035;DHT22;6584;48.022;11.810;2022-11-24T17:16:13;5.20;99.90
13035;DHT22;6584;48.022;11.810;2022-11-24T17:18:40;5.20;99.90
13035;DHT22;6584;48.022;11.810;2022-11-24T17:21:08;5.10;99.90
13035;DHT22;6584;48.022;11.810;2022-11-24T17:23:35;5.10;99.90
13035;DHT22;6584;48.022;11.810;2022-11-24T17:26:02;5.00;99.90
13035;DHT22;6584;48.022;11.810;2022-11-24T17:28:28;5.00;99.90
13035;DHT22;6584;48.022;11.810;2022-11-24T17:30:54;4.80;99.90
13035;DHT22;6584;48.022;11.810;2022-11-24T17:33:20;4.80;99.90
13035;DHT22;6584;48.022;11.810;2022-11-24T17:35:46;4.70;99.90
13035;DHT22;6584;48.022;11.810;2022-11-24T17:38:11;4.60;99.90
13035;DHT22;6584;48.022;11.810;2022-11-24T17:40:37;4.50;99.90